Capitol Logistics 1143


EBLG
Liège Airport
Liege, BE
LEBL
Barcelona International Airport
Barcelona, ES

Activity Log

Date Flight Route Aircraft Duration
No Flights Yet

Route Details

Aircraft Information
Primary: Boeing 737-800BCF
Backup: Not Available
Route Data
Distance: 577nm
Sched. Duration: 1h 30m
Avg. Duration: 0h 00m (-130m)
Times Flown: 0
Recm'd Route: Not Available
Planned Altitude: 34,000ft
Origin Wx: EBLG 271620Z 32009KT 290V350 1200 R22L/1700U R22R/1900N R04R/1500N -SN SCT002 OVC003 M00/M01 Q0997 TEMPO 0800 SN
Dest. Wx: LEBL 271630Z 27014KT 240V300 CAVOK 19/04 Q1013 NOSIG
Notes:

Financial History
Total Freight: 0lbs
Average Load: 0lbs/flt
Fuel Used: 0lbs
Avg. Fuel Used: 0lbs/flt
Fuel Expense: $0
Avg. Fuel Expense: $0
Avg. Fuel Cost: $0/lbs
Total Gross Income: $0
Pilot Pay: $0
Total Expenses: $0
Total Revenue: $0
Average Revenue: $0